Time;durP1;ratioP1;P1;durP2;ratioP2;P2;SDS_P1;SDS_P2;PMS_P1;PMS_P2;Temp;Humidity;BMP_temperature;BMP_pressure;BME280_temperature;BME280_humidity;BME280_pressure;Samples;Min_cycle;Max_cycle;Signal;HPM_P1;HPM_P2
2022/05/28 00:02:46;;;;;;;8.43;2.63;;;;;;;10.69;69.62;101225.84;4996469;28;20069;-76
2022/05/28 00:05:50;;;;;;;7.78;2.10;;;;;;;10.69;69.54;101229.31;4996363;28;20616;-76
2022/05/28 00:08:53;;;;;;;10.07;3.22;;;;;;;10.71;69.61;101229.22;4996656;28;20108;-76
2022/05/28 00:11:56;;;;;;;11.70;2.75;;;;;;;10.64;69.88;101225.16;4989423;28;20072;-76
2022/05/28 00:14:59;;;;;;;9.50;2.70;;;;;;;10.70;68.86;101219.69;4996678;28;20108;-75
2022/05/28 00:18:03;;;;;;;12.25;2.40;;;;;;;10.67;68.20;101217.19;4996005;28;20409;-76
2022/05/28 00:21:08;;;;;;;10.05;2.70;;;;;;;10.67;69.25;101214.59;5011349;28;20120;-76
2022/05/28 00:24:12;;;;;;;11.60;3.30;;;;;;;10.60;69.44;101215.75;5010855;28;20044;-76
2022/05/28 00:27:16;;;;;;;11.20;3.05;;;;;;;10.56;70.38;101211.53;5011196;28;20076;-76
2022/05/28 00:30:20;;;;;;;8.88;2.40;;;;;;;10.52;68.31;101196.91;5015509;28;20048;-76
2022/05/28 00:33:24;;;;;;;11.07;2.83;;;;;;;10.54;69.39;101205.56;5015187;28;20149;-76
2022/05/28 00:36:27;;;;;;;10.68;2.78;;;;;;;10.51;68.02;101193.44;5015450;28;20092;-76
2022/05/28 00:39:30;;;;;;;;;;;;;;;10.37;67.64;101200.97;5015983;28;20527;-76
2022/05/28 00:42:34;;;;;;;6.70;1.88;;;;;;;10.55;67.27;101197.63;5015494;28;19960;-76
2022/05/28 00:45:43;;;;;;;9.73;2.78;;;;;;;10.50;67.92;101196.97;5015611;28;20060;-76
2022/05/28 00:48:50;;;;;;;7.47;2.00;;;;;;;10.42;68.40;101186.81;5013898;28;20111;-76
2022/05/28 00:51:56;;;;;;;9.90;2.70;;;;;;;10.31;69.76;101186.41;5015091;28;20090;-76
2022/05/28 00:55:00;;;;;;;7.97;3.25;;;;;;;10.20;70.00;101189.41;5015121;28;20057;-76
2022/05/28 00:58:06;;;;;;;7.85;2.13;;;;;;;10.22;68.76;101184.16;5015158;28;20169;-76
2022/05/28 01:01:11;;;;;;;8.43;2.40;;;;;;;10.09;70.02;101182.94;5014896;28;20052;-76
2022/05/28 01:04:26;;;;;;;8.80;2.08;;;;;;;9.99;70.60;101187.69;5015037;28;20065;-76
2022/05/28 01:07:58;;;;;;;9.05;3.25;;;;;;;10.02;70.61;101185.78;5014833;28;20045;-76
2022/05/28 01:11:38;;;;;;;6.85;2.58;;;;;;;9.93;70.56;101183.53;5014071;28;20049;-76
2022/05/28 01:14:56;;;;;;;8.48;2.60;;;;;;;9.80;71.13;101197.13;5014778;28;20512;-76
2022/05/28 01:18:13;;;;;;;10.25;2.28;;;;;;;9.75;71.73;101197.31;5014622;28;20048;-76
2022/05/28 01:21:42;;;;;;;7.68;1.80;;;;;;;9.67;72.12;101192.38;5014553;28;20500;-76
2022/05/28 01:24:55;;;;;;;7.05;1.95;;;;;;;9.79;71.07;101193.66;5014881;28;20061;-76
2022/05/28 01:28:06;;;;;;;5.50;1.65;;;;;;;9.64;70.38;101189.88;5014670;28;20185;-76
2022/05/28 01:31:11;;;;;;;10.82;2.85;;;;;;;9.65;70.49;101185.50;5014208;28;20092;-76
2022/05/28 01:34:19;;;;;;;10.73;2.65;;;;;;;9.71;70.27;101190.50;5014290;28;20104;-76
2022/05/28 01:37:23;;;;;;;6.97;1.80;;;;;;;9.69;71.21;101189.69;5011168;28;20560;-76
2022/05/28 01:40:27;;;;;;;7.97;2.85;;;;;;;9.74;70.52;101182.56;5011659;28;20052;-76
2022/05/28 01:43:33;;;;;;;13.93;2.28;;;;;;;9.83;70.46;101174.38;5014291;28;20040;-76
2022/05/28 01:46:39;;;;;;;8.00;2.20;;;;;;;9.71;70.72;101177.44;5014239;28;20148;-76
2022/05/28 01:49:43;;;;;;;7.88;2.67;;;;;;;9.62;71.46;101173.41;5011765;28;20052;-76
2022/05/28 01:52:47;;;;;;;7.53;1.55;;;;;;;9.53;70.70;101169.38;5014095;28;20588;-76
2022/05/28 01:55:52;;;;;;;7.53;2.00;;;;;;;9.49;70.53;101159.97;5014084;28;20104;-76
2022/05/28 01:58:55;;;;;;;6.25;2.05;;;;;;;9.41;71.18;101164.66;5013822;28;20104;-76
2022/05/28 02:02:01;;;;;;;7.55;1.65;;;;;;;9.40;71.47;101151.63;5013862;28;20045;-76
2022/05/28 02:05:06;;;;;;;11.18;2.08;;;;;;;9.45;71.34;101161.00;5013654;28;20122;-76
2022/05/28 02:08:09;;;;;;;6.88;1.75;;;;;;;9.42;71.70;101163.72;5013186;28;20092;-76
2022/05/28 02:11:25;;;;;;;9.90;2.33;;;;;;;9.33;70.57;101164.06;5013635;28;20064;-76
2022/05/28 02:14:49;;;;;;;6.90;1.60;;;;;;;9.49;70.96;101159.13;5013349;28;20417;-76
2022/05/28 02:18:03;;;;;;;8.98;2.00;;;;;;;9.45;70.07;101150.56;5013324;28;20041;-76
2022/05/28 02:21:12;;;;;;;10.05;2.20;;;;;;;9.60;69.97;101149.09;4992629;28;20056;-75
2022/05/28 02:24:28;;;;;;;8.95;1.85;;;;;;;9.54;70.99;101160.66;4991973;28;20044;-76
2022/05/28 02:27:33;;;;;;;12.82;2.25;;;;;;;9.45;71.33;101161.00;4992489;28;20049;-76
2022/05/28 02:30:49;;;;;;;9.32;2.20;;;;;;;9.30;71.21;101158.97;4992757;28;20065;-76
2022/05/28 02:33:53;;;;;;;10.93;2.28;;;;;;;9.32;71.44;101149.31;4992258;28;20120;-76
2022/05/28 02:36:56;;;;;;;6.78;1.92;;;;;;;9.21;72.07;101151.47;4992546;28;20096;-76
2022/05/28 02:40:01;;;;;;;5.72;2.30;;;;;;;9.19;72.11;101150.66;4992260;28;20081;-76
2022/05/28 02:43:04;;;;;;;7.82;1.95;;;;;;;9.22;72.00;101142.72;4992433;28;20097;-76
2022/05/28 02:46:08;;;;;;;8.15;2.45;;;;;;;9.07;72.49;101139.78;4992494;28;20080;-76
2022/05/28 02:49:11;;;;;;;6.70;1.75;;;;;;;9.12;72.05;101146.56;5003783;28;20560;-76
2022/05/28 02:52:15;;;;;;;;;;;;;;;9.13;72.10;101137.84;5012461;28;20154;-76
2022/05/28 02:55:19;;;;;;;7.28;1.92;;;;;;;9.22;72.30;101137.50;5012084;28;19920;-76
2022/05/28 02:58:22;;;;;;;11.07;2.70;;;;;;;9.08;72.20;101132.78;5012143;28;20400;-76
2022/05/28 03:01:30;;;;;;;6.57;2.13;;;;;;;8.90;72.42;101136.91;5012511;28;20409;-76
2022/05/28 03:04:33;;;;;;;6.65;1.88;;;;;;;8.94;73.09;101133.31;5013003;28;20049;-76
2022/05/28 03:07:37;;;;;;;7.05;1.98;;;;;;;8.97;72.86;101138.41;5021302;28;20059;-76
2022/05/28 03:10:41;;;;;;;5.07;1.67;;;;;;;8.78;73.80;101140.81;5032656;28;20152;-76
2022/05/28 03:13:47;;;;;;;8.57;2.58;;;;;;;8.83;73.34;101145.84;5032374;28;20044;-76
2022/05/28 03:16:50;;;;;;;9.60;2.63;;;;;;;8.75;73.66;101147.91;5031610;28;20543;-76
2022/05/28 03:19:54;;;;;;;7.50;2.20;;;;;;;8.90;72.82;101138.66;5000371;28;20049;-76
2022/05/28 03:22:58;;;;;;;6.70;1.85;;;;;;;8.94;72.49;101132.44;5012632;28;20049;-76
2022/05/28 03:26:12;;;;;;;8.20;2.63;;;;;;;8.97;72.80;101138.41;5012243;28;20108;-76
2022/05/28 03:29:16;;;;;;;7.82;1.80;;;;;;;9.02;72.28;101141.69;5012238;28;20548;-76
2022/05/28 03:32:20;;;;;;;6.88;1.95;;;;;;;8.94;72.87;101127.25;5012124;28;20052;-76
2022/05/28 03:35:24;;;;;;;9.05;2.05;;;;;;;8.96;72.72;101134.06;5012494;28;20107;-76
2022/05/28 03:38:27;;;;;;;;;;;;;;;8.94;72.95;101138.50;5012818;28;20104;-76
2022/05/28 03:41:31;;;;;;;9.10;1.75;;;;;;;8.82;72.98;101146.78;5012403;28;20380;-76
2022/05/28 03:44:36;;;;;;;11.15;2.13;;;;;;;9.00;72.49;101143.50;5012380;28;20069;-76
2022/05/28 03:47:39;;;;;;;7.55;2.00;;;;;;;8.89;72.95;101150.84;5011040;28;20452;-76
2022/05/28 03:50:42;;;;;;;10.30;2.17;;;;;;;9.01;73.06;101147.81;5012195;28;20053;-76
2022/05/28 03:53:46;;;;;;;6.80;1.80;;;;;;;8.98;73.09;101145.31;5012304;28;20049;-76
2022/05/28 03:56:55;;;;;;;8.02;1.85;;;;;;;9.16;73.05;101142.97;4999876;28;20108;-76
2022/05/28 03:59:59;;;;;;;7.97;2.15;;;;;;;9.22;72.71;101138.38;5011040;28;20100;-76
2022/05/28 04:03:03;;;;;;;6.10;1.33;;;;;;;9.20;72.96;101145.41;4999558;28;20052;-76
2022/05/28 04:06:08;;;;;;;5.15;1.20;;;;;;;9.15;73.03;101143.84;5012018;28;20041;-76
2022/05/28 04:09:11;;;;;;;6.07;1.55;;;;;;;9.25;73.18;101143.47;5012159;28;20112;-76
2022/05/28 04:12:15;;;;;;;6.28;1.48;;;;;;;9.29;73.83;101149.44;4651861;28;10000438;-76
2022/05/28 04:15:19;;;;;;;5.90;1.95;;;;;;;9.25;73.66;101142.59;5008749;28;20115;-76
2022/05/28 04:18:23;;;;;;;5.95;1.88;;;;;;;9.36;73.54;101145.69;5007427;28;20084;-76
2022/05/28 04:21:26;;;;;;;;;;;;;;;9.39;73.83;101145.56;5008843;28;20189;-76
2022/05/28 04:24:29;;;;;;;6.50;1.60;;;;;;;9.45;74.05;101149.72;5007843;28;20531;-76
2022/05/28 04:27:33;;;;;;;9.43;2.15;;;;;;;9.49;73.80;101144.31;5008342;28;20049;-76
2022/05/28 04:30:37;;;;;;;6.97;1.80;;;;;;;9.54;73.62;101150.22;5007472;28;20475;-76
2022/05/28 04:33:40;;;;;;;6.30;1.83;;;;;;;9.64;73.86;101145.50;5007930;28;20460;-75
2022/05/28 04:36:44;;;;;;;8.43;1.75;;;;;;;9.76;73.39;101139.81;5008190;28;20048;-76
2022/05/28 04:39:48;;;;;;;5.38;1.40;;;;;;;9.79;73.66;101146.63;5008384;28;20052;-75
2022/05/28 04:42:51;;;;;;;8.48;1.52;;;;;;;9.57;74.53;101140.53;5009053;28;20144;-76
2022/05/28 04:45:54;;;;;;;8.98;1.60;;;;;;;9.54;74.45;101150.22;5010711;28;20049;-75
2022/05/28 04:48:58;;;;;;;6.80;1.30;;;;;;;9.69;74.49;101156.59;5010104;28;20539;-76
2022/05/28 04:52:02;;;;;;;8.10;1.67;;;;;;;9.71;74.18;101151.31;5010664;28;20519;-76
2022/05/28 04:55:09;;;;;;;5.72;1.60;;;;;;;9.75;73.81;101150.28;5011560;28;20057;-76
2022/05/28 04:58:13;;;;;;;9.68;1.70;;;;;;;9.71;74.37;101152.19;5011065;28;20408;-76
2022/05/28 05:01:20;;;;;;;5.78;1.60;;;;;;;9.84;73.80;101155.16;5011326;28;20104;-76
2022/05/28 05:04:23;;;;;;;7.18;1.60;;;;;;;9.95;72.86;101147.72;5011671;28;20053;-76
2022/05/28 05:07:26;;;;;;;6.32;1.52;;;;;;;9.95;73.95;101150.34;5011151;28;20100;-76
2022/05/28 05:10:30;;;;;;;6.78;1.92;;;;;;;9.96;74.52;101154.69;5011567;28;20056;-76
2022/05/28 05:13:33;;;;;;;;;;;;;;;9.98;75.01;101159.84;5023663;28;20060;-76
2022/05/28 05:16:36;;;;;;;14.55;1.73;;;;;;;10.00;75.01;101158.88;5028517;28;20003;-76
2022/05/28 05:19:40;;;;;;;9.80;1.67;;;;;;;10.04;74.90;101150.91;5010755;28;20156;-76
2022/05/28 05:22:45;;;;;;;13.70;2.00;;;;;;;9.80;75.18;101165.81;4320463;28;10000739;-76
2022/05/28 05:25:49;;;;;;;7.68;1.77;;;;;;;9.81;75.15;101168.34;5011325;28;20469;-76
2022/05/28 05:28:54;;;;;;;8.23;1.73;;;;;;;10.23;74.08;101167.53;5011024;28;20044;-76
2022/05/28 05:31:58;;;;;;;10.15;1.73;;;;;;;10.54;72.44;101159.31;5013525;28;20528;-76
2022/05/28 05:35:01;;;;;;;;;;;;;;;10.45;68.73;101160.56;5014655;28;20096;-76
2022/05/28 05:38:07;;;;;;;9.55;2.20;;;;;;;10.59;67.68;101156.50;5014470;28;20049;-76
2022/05/28 05:41:11;;;;;;;15.07;2.13;;;;;;;10.69;67.18;101163.06;5014394;28;20112;-76
2022/05/28 05:44:14;;;;;;;7.43;2.03;;;;;;;10.88;66.05;101160.47;5014690;28;20052;-76
2022/05/28 05:47:18;;;;;;;;;;;;;;;11.06;65.06;101157.06;5012109;28;20049;-76
2022/05/28 05:50:22;;;;;;;9.18;2.03;;;;;;;10.88;64.47;101148.28;5014485;28;19935;-76
2022/05/28 05:53:25;;;;;;;9.57;2.00;;;;;;;11.05;65.08;101158.00;5014085;28;20068;-76
2022/05/28 05:56:29;;;;;;;12.02;2.35;;;;;;;10.99;64.09;101162.66;5013644;28;20056;-76
2022/05/28 05:59:32;;;;;;;9.27;1.83;;;;;;;11.06;63.77;101151.84;5001912;28;20060;-76
2022/05/28 06:02:35;;;;;;;9.88;1.85;;;;;;;11.33;63.58;101149.75;5013909;28;20099;-76
2022/05/28 06:05:39;;;;;;;8.13;1.55;;;;;;;11.34;63.08;101158.47;5013881;28;20052;-76
2022/05/28 06:08:42;;;;;;;11.38;2.28;;;;;;;11.26;62.98;101157.94;5013476;28;20462;-76
2022/05/28 06:11:45;;;;;;;;;;;;;;;11.26;63.42;101150.09;5013951;28;20093;-76
2022/05/28 06:14:49;;;;;;;8.50;1.77;;;;;;;11.18;62.48;101150.44;5013935;28;20008;-76
2022/05/28 06:17:52;;;;;;;;;;;;;;;11.12;62.47;101145.50;5012407;28;20045;-76
2022/05/28 06:20:58;;;;;;;8.45;2.35;;;;;;;11.09;63.18;101146.47;5013324;28;20001;-77
2022/05/28 06:24:02;;;;;;;13.30;2.40;;;;;;;11.14;62.96;101154.13;5013369;28;20117;-76
2022/05/28 06:27:06;;;;;;;9.80;1.90;;;;;;;11.32;62.60;101147.19;5013340;28;20113;-76
2022/05/28 06:30:11;;;;;;;9.13;2.05;;;;;;;11.30;62.33;101155.13;5012611;28;20101;-76
2022/05/28 06:33:17;;;;;;;8.63;1.88;;;;;;;11.44;61.99;101151.88;5013288;28;20060;-76
2022/05/28 06:36:21;;;;;;;12.80;2.80;;;;;;;11.45;62.14;101144.88;5013080;28;20072;-76
2022/05/28 06:39:24;;;;;;;9.75;1.92;;;;;;;11.60;62.20;101141.53;5013359;28;20049;-75
2022/05/28 06:42:28;;;;;;;13.55;2.40;;;;;;;11.43;62.17;101144.13;5015627;28;20079;-75
2022/05/28 06:45:32;;;;;;;11.55;2.60;;;;;;;11.64;61.69;101143.94;5015242;28;20056;-75
2022/05/28 06:48:36;;;;;;;9.95;2.53;;;;;;;11.59;62.14;101138.09;5015539;28;20044;-75
2022/05/28 06:51:40;;;;;;;9.98;2.22;;;;;;;11.80;61.52;101132.75;5001727;28;20048;-76
2022/05/28 06:54:43;;;;;;;;;;;;;;;11.94;61.29;101134.75;5013535;28;20097;-75
2022/05/28 06:57:46;;;;;;;11.93;3.05;;;;;;;11.93;61.60;101138.28;5011668;28;19960;-75
2022/05/28 07:00:49;;;;;;;;;;;;;;;11.77;62.16;101131.16;4993804;28;20125;-76
2022/05/28 07:03:53;;;;;;;8.40;2.03;;;;;;;11.73;62.49;101139.19;4994155;28;19921;-76
2022/05/28 07:06:58;;;;;;;9.70;2.25;;;;;;;11.61;63.13;101140.63;5019113;28;20125;-76
2022/05/28 07:10:01;;;;;;;13.20;3.13;;;;;;;11.80;62.43;101141.44;4993187;28;20453;-76
2022/05/28 07:13:06;;;;;;;10.73;2.63;;;;;;;12.04;62.46;101143.88;5002206;28;20040;-76
2022/05/28 07:16:11;;;;;;;12.93;2.67;;;;;;;12.04;62.49;101143.88;5027475;28;20131;-76
2022/05/28 07:19:14;;;;;;;11.57;2.08;;;;;;;12.14;63.02;101141.66;5031937;28;20045;-76
2022/05/28 07:22:18;;;;;;;6.70;2.08;;;;;;;12.17;62.22;101139.72;5032152;28;20056;-76
2022/05/28 07:25:22;;;;;;;10.43;1.98;;;;;;;12.23;62.37;101134.19;5032062;28;20408;-76
2022/05/28 07:28:30;;;;;;;11.95;2.70;;;;;;;12.07;62.55;101147.19;5031644;28;20048;-76
2022/05/28 07:31:34;;;;;;;12.77;2.33;;;;;;;12.07;62.85;101146.34;5030806;28;20461;-76
2022/05/28 07:34:38;;;;;;;13.27;2.70;;;;;;;11.89;63.76;101147.22;5019313;28;20416;-76
2022/05/28 07:37:41;;;;;;;7.68;2.30;;;;;;;12.09;63.19;101134.88;5031706;28;20064;-76
2022/05/28 07:40:46;;;;;;;11.13;2.65;;;;;;;12.02;63.93;101132.59;5031560;28;20060;-76
2022/05/28 07:43:52;;;;;;;9.70;2.45;;;;;;;12.12;64.08;101128.59;5032603;28;20099;-76
2022/05/28 07:46:55;;;;;;;10.95;2.03;;;;;;;12.51;63.21;101135.44;5015511;28;20096;-76
2022/05/28 07:49:58;;;;;;;20.00;3.05;;;;;;;12.31;63.21;101134.63;5010025;28;20095;-76
2022/05/28 07:53:02;;;;;;;10.05;2.35;;;;;;;12.54;62.81;101140.53;5005765;28;20133;-77
2022/05/28 07:56:06;;;;;;;12.27;2.30;;;;;;;12.61;63.43;101135.81;5011991;28;20096;-76
2022/05/28 07:59:10;;;;;;;9.43;1.95;;;;;;;12.94;62.15;101128.78;5011751;28;20045;-75
2022/05/28 08:02:13;;;;;;;12.02;2.35;;;;;;;13.47;61.17;101122.50;5012173;28;20554;-76
2022/05/28 08:05:17;;;;;;;10.57;2.22;;;;;;;13.55;61.13;101114.16;5011992;28;20558;-75
2022/05/28 08:08:23;;;;;;;11.85;2.60;;;;;;;13.52;60.15;101116.97;5011835;28;20528;-76
2022/05/28 08:11:27;;;;;;;8.68;2.10;;;;;;;13.18;60.31;101110.91;5012072;28;20109;-76
2022/05/28 08:14:31;;;;;;;7.35;1.63;;;;;;;13.35;60.12;101098.66;5018878;28;20056;-76
2022/05/28 08:17:34;;;;;;;9.68;2.05;;;;;;;13.44;62.10;101101.63;5007244;28;20040;-76
2022/05/28 08:24:00;;;;;;;9.25;1.42;;;;;;;13.51;56.62;101098.69;5016604;28;20413;-77
2022/05/28 08:27:04;;;;;;;6.78;1.70;;;;;;;14.01;56.35;101094.94;5015703;28;20088;-76
2022/05/28 08:30:08;;;;;;;8.30;1.83;;;;;;;13.92;56.60;101096.34;5011477;28;20050;-76
2022/05/28 08:33:14;;;;;;;5.22;1.05;;;;;;;13.96;56.93;101092.59;4996167;28;20073;-77
2022/05/28 08:36:19;;;;;;;6.40;1.35;;;;;;;14.12;56.21;101096.03;5015272;28;20561;-76
2022/05/28 08:39:22;;;;;;;5.78;1.13;;;;;;;13.91;55.46;101097.25;5016404;28;20068;-76
2022/05/28 08:42:28;;;;;;;9.93;1.67;;;;;;;13.58;55.03;101106.13;4992977;28;20516;-76
2022/05/28 08:45:32;;;;;;;6.95;1.02;;;;;;;13.73;54.32;101097.38;5016364;28;20354;-75
2022/05/28 08:48:48;;;;;;;10.88;2.47;;;;;;;13.89;53.98;101101.78;5022613;28;20044;-76
2022/05/28 08:51:58;;;;;;;8.07;1.70;;;;;;;13.87;53.74;101103.63;5014296;28;20456;-76
2022/05/28 08:55:17;;;;;;;9.82;1.88;;;;;;;14.14;52.68;101107.31;5032067;28;20103;-76
2022/05/28 08:58:25;;;;;;;9.10;1.25;;;;;;;13.82;55.76;101105.69;4994869;28;20118;-76
2022/05/28 09:01:33;;;;;;;6.40;1.13;;;;;;;13.73;54.88;101107.91;4983896;28;20512;-77
2022/05/28 09:04:40;;;;;;;9.07;1.98;;;;;;;13.52;56.18;101109.09;5006793;28;20040;-76
2022/05/28 09:07:43;;;;;;;7.40;1.48;;;;;;;13.78;56.17;101093.63;5030424;28;20072;-76
2022/05/28 09:10:49;;;;;;;5.65;1.42;;;;;;;14.17;55.67;101086.09;5035330;28;20044;-76
2022/05/28 09:13:54;;;;;;;7.90;1.70;;;;;;;14.35;54.98;101076.28;5034143;28;20516;-76
2022/05/28 09:17:21;;;;;;;5.15;1.30;;;;;;;14.71;52.59;101084.72;5010437;28;20527;-77
2022/05/28 09:20:35;;;;;;;8.07;1.30;;;;;;;15.04;52.13;101074.75;5035045;28;20504;-76
2022/05/28 09:23:45;;;;;;;9.27;1.10;;;;;;;14.98;50.68;101077.78;5033680;28;20065;-75
2022/05/28 09:27:20;;;;;;;5.40;0.95;;;;;;;14.40;50.53;101086.53;5033811;28;20507;-75
2022/05/28 09:30:39;;;;;;;3.88;0.93;;;;;;;14.11;49.17;101078.56;5027567;28;20141;-75
2022/05/28 09:33:43;;;;;;;5.03;0.80;;;;;;;14.22;50.19;101082.34;5033137;28;20060;-75
2022/05/28 09:37:24;;;;;;;3.60;0.77;;;;;;;14.15;49.20;101087.13;5033875;28;20464;-75
2022/05/28 09:40:55;;;;;;;4.63;1.05;;;;;;;14.21;50.68;101085.94;5021823;28;20614;-75
2022/05/28 09:44:20;;;;;;;6.38;1.23;;;;;;;14.46;50.47;101080.91;5033590;28;20096;-75
2022/05/28 09:47:23;;;;;;;7.35;1.02;;;;;;;14.96;49.43;101084.06;5021597;28;20092;-75
2022/05/28 09:50:30;;;;;;;6.65;1.20;;;;;;;14.87;47.77;101065.28;5033445;28;20048;-75
2022/05/28 09:56:55;;;;;;;4.57;0.98;;;;;;;15.09;47.23;101066.56;5033781;28;20095;-75
2022/05/28 10:00:03;;;;;;;6.85;1.02;;;;;;;14.90;47.66;101074.78;5033836;28;20048;-75
2022/05/28 10:06:56;;;;;;;12.02;2.22;;;;;;;15.66;47.52;101052.41;4971992;28;20074;-75
2022/05/28 10:10:01;;;;;;;5.28;1.00;;;;;;;15.92;47.87;101053.34;4972981;28;20105;-76
2022/05/28 10:13:16;;;;;;;5.43;1.40;;;;;;;15.41;44.62;101068.94;5032992;28;20511;-75
2022/05/28 10:16:38;;;;;;;3.60;1.10;;;;;;;15.72;44.66;101052.88;5033085;28;20044;-75
2022/05/28 10:19:43;;;;;;;5.43;1.08;;;;;;;15.46;45.07;101059.81;5026882;28;20049;-75
2022/05/28 10:22:51;;;;;;;4.45;1.00;;;;;;;15.08;44.13;101052.56;5032971;28;20049;-75
2022/05/28 10:25:54;;;;;;;4.20;1.20;;;;;;;15.22;44.68;101058.72;5033355;28;20059;-75
2022/05/28 10:29:18;;;;;;;6.95;1.05;;;;;;;15.25;43.61;101054.13;5032526;28;20129;-75
2022/05/28 10:32:48;;;;;;;3.78;0.70;;;;;;;15.58;42.87;101040.56;5033216;28;20100;-75
2022/05/28 10:35:52;;;;;;;3.53;0.88;;;;;;;15.75;42.92;101033.38;5032750;28;20114;-75
2022/05/28 10:39:07;;;;;;;5.05;1.13;;;;;;;16.08;41.71;101035.59;5032912;28;20047;-75
2022/05/28 10:42:13;;;;;;;10.35;2.75;;;;;;;16.09;41.01;101031.16;5031678;28;20060;-75
2022/05/28 10:45:19;;;;;;;9.23;2.90;;;;;;;16.46;42.27;101032.97;5032825;28;20432;-75
2022/05/28 10:48:23;;;;;;;9.48;3.25;;;;;;;16.59;40.24;101022.41;5032728;28;20405;-75
2022/05/28 10:51:32;;;;;;;6.18;1.00;;;;;;;16.61;39.17;101024.94;5032362;28;20115;-75
2022/05/28 10:54:55;;;;;;;7.10;1.10;;;;;;;15.71;39.58;101024.84;5032654;28;20051;-76
2022/05/28 10:58:11;;;;;;;4.55;0.55;;;;;;;15.80;41.83;101028.66;5032524;28;20081;-76
2022/05/28 11:01:38;;;;;;;4.03;0.80;;;;;;;16.11;41.75;101018.69;5015810;28;20405;-75
2022/05/28 11:05:43;;;;;;;7.13;1.13;;;;;;;16.06;40.89;101005.81;5012079;28;20033;-75
2022/05/28 11:09:06;;;;;;;2.50;1.08;;;;;;;16.42;40.13;101018.28;4932848;29;20084;-75
2022/05/28 11:12:21;;;;;;;3.43;1.07;;;;;;;16.21;38.50;101017.13;4940669;28;20403;-76
2022/05/28 11:15:30;;;;;;;4.18;0.70;;;;;;;16.27;40.82;101014.91;5012717;28;20049;-75
2022/05/28 11:19:04;;;;;;;5.18;1.15;;;;;;;15.66;39.62;101015.50;5021018;28;20040;-75
2022/05/28 11:22:16;;;;;;;;;;;;;;;16.21;40.44;100996.88;4993294;28;20129;-75
2022/05/28 11:25:48;;;;;;;6.68;0.77;;;;;;;16.35;38.23;100993.28;4992822;28;19925;-75
2022/05/28 11:28:58;;;;;;;3.17;0.77;;;;;;;16.39;39.25;100989.47;4980802;28;20049;-75
2022/05/28 11:32:10;;;;;;;3.33;0.85;;;;;;;16.15;38.78;100985.88;4992931;28;20108;-75
2022/05/28 11:35:27;;;;;;;3.15;0.70;;;;;;;16.54;37.68;100992.00;4973148;28;20109;-75
2022/05/28 11:39:06;;;;;;;4.32;0.98;;;;;;;16.57;37.45;100992.63;4973159;28;20504;-75
2022/05/28 11:42:16;;;;;;;5.00;1.15;;;;;;;16.12;38.31;100988.75;4973087;28;20041;-75
2022/05/28 11:45:43;;;;;;;1.95;0.60;;;;;;;16.33;38.66;100994.31;4973484;28;20470;-75
2022/05/28 11:52:20;;;;;;;2.97;0.77;;;;;;;16.46;37.14;100974.91;4973305;28;20410;-75
2022/05/28 11:55:29;;;;;;;2.90;0.70;;;;;;;15.96;38.31;100971.31;4976569;28;20402;-75
2022/05/28 11:58:42;;;;;;;5.00;0.65;;;;;;;16.30;38.93;100979.53;4965589;28;20073;-75
2022/05/28 12:02:10;;;;;;;4.03;0.90;;;;;;;15.98;38.86;100965.91;4977306;28;20046;-75
2022/05/28 12:05:21;;;;;;;3.70;0.90;;;;;;;15.99;39.23;100967.63;4976840;28;20049;-76
2022/05/28 12:08:30;;;;;;;3.33;0.50;;;;;;;16.80;38.64;100954.06;4976529;28;20050;-76
2022/05/28 12:11:41;;;;;;;5.22;1.17;;;;;;;16.89;39.56;100955.22;4976534;28;20089;-76
2022/05/28 12:15:00;;;;;;;4.82;1.40;;;;;;;16.31;38.35;100965.41;4977164;28;20049;-76
2022/05/28 12:18:22;;;;;;;3.83;0.70;;;;;;;16.47;38.56;100973.94;4990061;28;20104;-76
2022/05/28 12:21:34;;;;;;;4.55;0.98;;;;;;;15.87;38.69;100966.66;4997292;28;20053;-76
2022/05/28 12:24:40;;;;;;;5.20;0.80;;;;;;;16.00;38.52;100961.38;4996160;28;20068;-76
2022/05/28 12:27:54;;;;;;;6.57;1.13;;;;;;;16.40;35.01;100948.94;4995443;28;20388;-76
2022/05/28 12:31:02;;;;;;;5.20;1.10;;;;;;;17.13;34.72;100934.06;4996035;28;20074;-76
2022/05/28 12:34:05;;;;;;;3.70;0.55;;;;;;;17.11;34.20;100938.66;5006081;28;20053;-76
2022/05/28 12:37:18;;;;;;;5.15;1.13;;;;;;;16.34;37.19;100948.53;5014545;28;20041;-76
2022/05/28 12:40:30;;;;;;;5.30;1.10;;;;;;;16.28;39.42;100949.78;5015331;28;20062;-76
2022/05/28 12:43:36;;;;;;;4.13;0.93;;;;;;;15.95;38.75;100952.94;5015323;28;20072;-76
2022/05/28 12:46:48;;;;;;;2.28;0.50;;;;;;;16.22;38.76;100944.94;5014958;28;20064;-76
2022/05/28 12:49:52;;;;;;;3.97;0.60;;;;;;;16.43;39.40;100945.22;5014699;28;20112;-75
2022/05/28 12:53:08;;;;;;;8.27;1.23;;;;;;;17.05;37.16;100941.72;5014860;28;20045;-76
2022/05/28 12:56:32;;;;;;;5.50;0.82;;;;;;;17.00;34.15;100930.66;5016187;28;20072;-77
2022/05/28 12:59:43;;;;;;;4.55;0.90;;;;;;;18.55;33.55;100922.38;5034700;28;20052;-76
2022/05/28 13:02:48;;;;;;;10.40;1.67;;;;;;;18.77;31.54;100918.91;5034432;28;20072;-76
2022/05/28 13:06:10;;;;;;;2.80;0.75;;;;;;;19.23;29.48;100918.63;5033183;28;20068;-76
2022/05/28 13:09:14;;;;;;;5.20;0.70;;;;;;;18.42;30.66;100911.09;5022098;28;20084;-76
2022/05/28 13:12:28;;;;;;;5.72;1.05;;;;;;;17.48;30.57;100922.69;5034605;28;20098;-76
2022/05/28 13:16:10;;;;;;;3.90;0.90;;;;;;;16.56;31.68;100921.44;5034814;28;20092;-76
2022/05/28 13:19:37;;;;;;;4.90;0.70;;;;;;;16.24;31.87;100924.53;5034302;28;20172;-76
2022/05/28 13:22:57;;;;;;;4.28;0.90;;;;;;;16.77;32.59;100916.47;5017534;28;20057;-76
2022/05/28 13:26:52;;;;;;;2.78;0.70;;;;;;;17.43;32.19;100902.75;5013877;28;20044;-76
2022/05/28 13:30:07;;;;;;;5.78;3.88;;;;;;;17.73;31.22;100897.88;5007603;28;20125;-76
2022/05/28 13:33:15;;;;;;;3.33;0.90;;;;;;;18.36;30.40;100892.06;5014182;28;20111;-76
2022/05/28 13:36:22;;;;;;;3.83;0.93;;;;;;;19.43;29.14;100892.28;5014355;28;20141;-77
2022/05/28 13:39:26;;;;;;;2.38;0.98;;;;;;;19.98;28.41;100883.16;5014286;28;20045;-77
2022/05/28 13:42:34;;;;;;;4.18;1.40;;;;;;;21.21;28.32;100882.91;5014659;28;20088;-77
2022/05/28 13:45:42;;;;;;;5.40;0.80;;;;;;;20.23;26.69;100885.50;5014307;28;20048;-77
2022/05/28 13:48:51;;;;;;;5.88;0.82;;;;;;;18.72;30.42;100892.78;5013785;28;20123;-78
2022/05/28 13:52:06;;;;;;;4.15;0.80;;;;;;;18.25;33.11;100891.22;5014167;28;20052;-77
2022/05/28 13:55:23;;;;;;;3.33;0.60;;;;;;;17.86;32.64;100898.66;5013314;28;20044;-77
2022/05/28 13:58:33;;;;;;;3.80;0.98;;;;;;;17.80;34.49;100894.69;5017011;28;20137;-77
2022/05/28 14:01:38;;;;;;;3.13;0.63;;;;;;;18.86;29.35;100885.50;5028343;28;20056;-78
2022/05/28 14:04:45;;;;;;;4.18;0.80;;;;;;;21.82;26.69;100876.41;5031152;28;20562;-78
2022/05/28 14:07:51;;;;;;;4.65;0.95;;;;;;;22.78;24.86;100868.94;5025334;28;20088;-78
2022/05/28 14:11:41;;;;;;;4.43;0.98;;;;;;;25.14;21.50;100863.31;5025070;28;20040;-79
2022/05/28 14:14:46;;;;;;;4.45;1.05;;;;;;;25.35;20.20;100859.31;5013680;28;20140;-76
2022/05/28 14:17:50;;;;;;;3.13;0.75;;;;;;;21.84;25.47;100874.44;5033168;28;20786;-75
2022/05/28 14:21:05;;;;;;;6.82;1.20;;;;;;;20.13;27.91;100875.69;5032971;28;20175;-75
2022/05/28 14:24:21;;;;;;;4.20;1.17;;;;;;;21.63;24.18;100868.47;5021267;28;20053;-75
2022/05/28 14:27:27;;;;;;;3.55;0.95;;;;;;;24.06;21.46;100860.50;5033345;28;20045;-76
2022/05/28 14:30:33;;;;;;;4.25;0.63;;;;;;;24.46;20.24;100856.31;5033299;28;20079;-75
2022/05/28 14:33:39;;;;;;;9.65;1.42;;;;;;;19.74;26.21;100862.22;5032923;28;20331;-75
2022/05/28 14:36:53;;;;;;;3.65;0.90;;;;;;;19.20;27.15;100876.47;5033214;28;20055;-75
2022/05/28 14:39:58;;;;;;;2.45;0.60;;;;;;;18.95;29.42;100871.50;5033080;28;20455;-75
2022/05/28 14:43:04;;;;;;;5.13;1.55;;;;;;;20.06;28.43;100866.56;5033060;28;20043;-75
2022/05/28 14:46:42;;;;;;;4.25;0.90;;;;;;;22.47;22.92;100861.31;5033059;28;20455;-75
2022/05/28 14:49:55;;;;;;;4.00;0.95;;;;;;;26.72;18.64;100844.81;5032930;28;20401;-75
2022/05/28 14:52:59;;;;;;;4.03;0.90;;;;;;;21.94;23.33;100856.63;5032612;28;20064;-75
2022/05/28 14:56:17;;;;;;;3.25;1.00;;;;;;;19.31;26.23;100856.19;5020417;28;20095;-75
2022/05/28 14:59:24;;;;;;;4.70;0.75;;;;;;;18.32;28.01;100852.75;5032692;28;20060;-75